sensor_id;sensor_type;location;lat;lon;timestamp;P1;durP1;ratioP1;P2;durP2;ratioP2
10059;SDS011;5069;49.306;8.636;2023-07-13T00:00:44;1.47;;;1.27;;
10059;SDS011;5069;49.306;8.636;2023-07-13T00:03:45;3.03;;;1.33;;
10059;SDS011;5069;49.306;8.636;2023-07-13T00:06:47;2.73;;;1.37;;
10059;SDS011;5069;49.306;8.636;2023-07-13T00:09:48;3.30;;;1.30;;
10059;SDS011;5069;49.306;8.636;2023-07-13T00:12:50;2.50;;;1.23;;
10059;SDS011;5069;49.306;8.636;2023-07-13T00:15:53;3.63;;;1.50;;
10059;SDS011;5069;49.306;8.636;2023-07-13T00:18:55;2.60;;;1.43;;
10059;SDS011;5069;49.306;8.636;2023-07-13T00:21:56;2.20;;;1.33;;
10059;SDS011;5069;49.306;8.636;2023-07-13T00:24:58;2.23;;;1.50;;
10059;SDS011;5069;49.306;8.636;2023-07-13T00:27:59;3.57;;;1.50;;
10059;SDS011;5069;49.306;8.636;2023-07-13T00:31:01;5.47;;;1.57;;
10059;SDS011;5069;49.306;8.636;2023-07-13T00:34:03;2.23;;;1.30;;
10059;SDS011;5069;49.306;8.636;2023-07-13T00:37:05;5.00;;;1.60;;
10059;SDS011;5069;49.306;8.636;2023-07-13T00:40:09;3.63;;;1.50;;
10059;SDS011;5069;49.306;8.636;2023-07-13T00:43:13;3.63;;;1.37;;
10059;SDS011;5069;49.306;8.636;2023-07-13T00:46:19;3.87;;;1.50;;
10059;SDS011;5069;49.306;8.636;2023-07-13T00:49:29;4.03;;;1.40;;
10059;SDS011;5069;49.306;8.636;2023-07-13T00:52:33;1.67;;;1.47;;
10059;SDS011;5069;49.306;8.636;2023-07-13T00:55:37;4.50;;;1.60;;
10059;SDS011;5069;49.306;8.636;2023-07-13T00:58:40;3.20;;;1.40;;
10059;SDS011;5069;49.306;8.636;2023-07-13T01:01:41;3.97;;;1.60;;
10059;SDS011;5069;49.306;8.636;2023-07-13T01:04:43;3.40;;;1.53;;
10059;SDS011;5069;49.306;8.636;2023-07-13T01:07:45;2.03;;;1.50;;
10059;SDS011;5069;49.306;8.636;2023-07-13T01:10:55;5.23;;;1.53;;
10059;SDS011;5069;49.306;8.636;2023-07-13T01:13:58;3.63;;;1.43;;
10059;SDS011;5069;49.306;8.636;2023-07-13T01:16:59;3.83;;;1.23;;
10059;SDS011;5069;49.306;8.636;2023-07-13T01:20:01;4.17;;;1.50;;
10059;SDS011;5069;49.306;8.636;2023-07-13T01:23:06;2.40;;;1.53;;
10059;SDS011;5069;49.306;8.636;2023-07-13T01:26:09;6.63;;;1.40;;
10059;SDS011;5069;49.306;8.636;2023-07-13T01:29:12;4.40;;;1.80;;
10059;SDS011;5069;49.306;8.636;2023-07-13T01:32:15;2.43;;;1.60;;
10059;SDS011;5069;49.306;8.636;2023-07-13T01:35:22;3.57;;;1.43;;
10059;SDS011;5069;49.306;8.636;2023-07-13T01:38:26;2.93;;;1.80;;
10059;SDS011;5069;49.306;8.636;2023-07-13T01:41:28;4.57;;;1.40;;
10059;SDS011;5069;49.306;8.636;2023-07-13T01:44:30;4.37;;;1.70;;
10059;SDS011;5069;49.306;8.636;2023-07-13T01:47:31;4.47;;;1.53;;
10059;SDS011;5069;49.306;8.636;2023-07-13T01:50:33;3.30;;;1.73;;
10059;SDS011;5069;49.306;8.636;2023-07-13T01:53:35;2.90;;;1.60;;
10059;SDS011;5069;49.306;8.636;2023-07-13T01:56:37;3.00;;;2.10;;
10059;SDS011;5069;49.306;8.636;2023-07-13T01:59:40;3.03;;;1.77;;
10059;SDS011;5069;49.306;8.636;2023-07-13T02:02:42;4.97;;;1.57;;
10059;SDS011;5069;49.306;8.636;2023-07-13T02:05:46;4.90;;;1.80;;
10059;SDS011;5069;49.306;8.636;2023-07-13T02:08:48;4.03;;;1.90;;
10059;SDS011;5069;49.306;8.636;2023-07-13T02:11:50;3.80;;;2.10;;
10059;SDS011;5069;49.306;8.636;2023-07-13T02:14:51;4.10;;;1.80;;
10059;SDS011;5069;49.306;8.636;2023-07-13T02:17:53;2.63;;;1.60;;
10059;SDS011;5069;49.306;8.636;2023-07-13T02:20:55;4.07;;;1.90;;
10059;SDS011;5069;49.306;8.636;2023-07-13T02:23:56;4.37;;;1.90;;
10059;SDS011;5069;49.306;8.636;2023-07-13T02:26:59;2.70;;;1.93;;
10059;SDS011;5069;49.306;8.636;2023-07-13T02:30:00;3.53;;;1.70;;
10059;SDS011;5069;49.306;8.636;2023-07-13T02:33:02;3.77;;;1.73;;
10059;SDS011;5069;49.306;8.636;2023-07-13T02:36:04;3.33;;;1.90;;
10059;SDS011;5069;49.306;8.636;2023-07-13T02:39:06;5.47;;;2.10;;
10059;SDS011;5069;49.306;8.636;2023-07-13T02:42:10;5.63;;;1.90;;
10059;SDS011;5069;49.306;8.636;2023-07-13T02:45:11;3.10;;;1.80;;
10059;SDS011;5069;49.306;8.636;2023-07-13T02:48:14;3.60;;;2.10;;
10059;SDS011;5069;49.306;8.636;2023-07-13T02:51:16;3.53;;;1.77;;
10059;SDS011;5069;49.306;8.636;2023-07-13T02:54:17;2.63;;;1.80;;
10059;SDS011;5069;49.306;8.636;2023-07-13T02:57:19;2.63;;;1.90;;
10059;SDS011;5069;49.306;8.636;2023-07-13T03:00:20;2.27;;;1.60;;
10059;SDS011;5069;49.306;8.636;2023-07-13T03:03:22;1.97;;;1.63;;
10059;SDS011;5069;49.306;8.636;2023-07-13T03:06:24;3.60;;;2.00;;
10059;SDS011;5069;49.306;8.636;2023-07-13T03:09:27;2.97;;;1.70;;
10059;SDS011;5069;49.306;8.636;2023-07-13T03:12:30;3.23;;;1.60;;
10059;SDS011;5069;49.306;8.636;2023-07-13T03:15:32;3.37;;;2.00;;
10059;SDS011;5069;49.306;8.636;2023-07-13T03:18:35;2.40;;;1.77;;
10059;SDS011;5069;49.306;8.636;2023-07-13T03:21:40;3.67;;;1.93;;
10059;SDS011;5069;49.306;8.636;2023-07-13T03:24:43;4.17;;;1.80;;
10059;SDS011;5069;49.306;8.636;2023-07-13T03:27:46;3.30;;;1.87;;
10059;SDS011;5069;49.306;8.636;2023-07-13T03:30:47;2.47;;;1.70;;
10059;SDS011;5069;49.306;8.636;2023-07-13T03:33:49;3.60;;;1.70;;
10059;SDS011;5069;49.306;8.636;2023-07-13T03:36:53;3.50;;;1.80;;
10059;SDS011;5069;49.306;8.636;2023-07-13T03:39:55;1.97;;;1.77;;
10059;SDS011;5069;49.306;8.636;2023-07-13T03:42:57;4.30;;;1.80;;
10059;SDS011;5069;49.306;8.636;2023-07-13T03:45:59;3.30;;;1.90;;
10059;SDS011;5069;49.306;8.636;2023-07-13T03:49:00;5.97;;;2.43;;
10059;SDS011;5069;49.306;8.636;2023-07-13T03:52:02;2.67;;;1.90;;
10059;SDS011;5069;49.306;8.636;2023-07-13T03:55:03;2.77;;;2.13;;
10059;SDS011;5069;49.306;8.636;2023-07-13T03:58:23;2.30;;;2.10;;
10059;SDS011;5069;49.306;8.636;2023-07-13T04:01:30;3.57;;;2.03;;
10059;SDS011;5069;49.306;8.636;2023-07-13T04:04:32;4.00;;;2.17;;
10059;SDS011;5069;49.306;8.636;2023-07-13T04:07:34;3.97;;;2.00;;
10059;SDS011;5069;49.306;8.636;2023-07-13T04:10:35;5.23;;;2.07;;
10059;SDS011;5069;49.306;8.636;2023-07-13T04:13:37;2.90;;;2.17;;
10059;SDS011;5069;49.306;8.636;2023-07-13T04:16:38;5.77;;;1.90;;
10059;SDS011;5069;49.306;8.636;2023-07-13T04:19:40;5.80;;;2.33;;
10059;SDS011;5069;49.306;8.636;2023-07-13T04:22:42;4.10;;;2.07;;
10059;SDS011;5069;49.306;8.636;2023-07-13T04:25:44;2.40;;;2.20;;
10059;SDS011;5069;49.306;8.636;2023-07-13T04:28:50;3.20;;;1.90;;
10059;SDS011;5069;49.306;8.636;2023-07-13T04:31:53;3.30;;;2.27;;
10059;SDS011;5069;49.306;8.636;2023-07-13T04:34:54;3.10;;;2.27;;
10059;SDS011;5069;49.306;8.636;2023-07-13T04:37:57;4.43;;;2.33;;
10059;SDS011;5069;49.306;8.636;2023-07-13T04:41:00;4.67;;;2.43;;
10059;SDS011;5069;49.306;8.636;2023-07-13T04:44:03;4.43;;;2.00;;
10059;SDS011;5069;49.306;8.636;2023-07-13T04:47:04;5.30;;;2.27;;
10059;SDS011;5069;49.306;8.636;2023-07-13T04:50:07;3.77;;;2.00;;
10059;SDS011;5069;49.306;8.636;2023-07-13T04:53:09;2.90;;;1.90;;
10059;SDS011;5069;49.306;8.636;2023-07-13T04:56:11;5.53;;;2.10;;
10059;SDS011;5069;49.306;8.636;2023-07-13T04:59:13;3.87;;;1.83;;
10059;SDS011;5069;49.306;8.636;2023-07-13T05:02:15;4.87;;;2.20;;
10059;SDS011;5069;49.306;8.636;2023-07-13T05:05:16;5.33;;;2.30;;
10059;SDS011;5069;49.306;8.636;2023-07-13T05:08:18;6.67;;;2.20;;
10059;SDS011;5069;49.306;8.636;2023-07-13T05:11:20;2.87;;;1.90;;
10059;SDS011;5069;49.306;8.636;2023-07-13T05:14:21;6.27;;;2.13;;
10059;SDS011;5069;49.306;8.636;2023-07-13T05:17:23;3.20;;;2.20;;
10059;SDS011;5069;49.306;8.636;2023-07-13T05:20:24;3.10;;;2.20;;
10059;SDS011;5069;49.306;8.636;2023-07-13T05:23:25;5.13;;;2.33;;
10059;SDS011;5069;49.306;8.636;2023-07-13T05:26:27;3.03;;;2.17;;
10059;SDS011;5069;49.306;8.636;2023-07-13T05:29:29;3.33;;;2.10;;
10059;SDS011;5069;49.306;8.636;2023-07-13T05:32:31;3.47;;;2.10;;
10059;SDS011;5069;49.306;8.636;2023-07-13T05:35:33;6.07;;;2.23;;
10059;SDS011;5069;49.306;8.636;2023-07-13T05:38:34;2.90;;;2.07;;
10059;SDS011;5069;49.306;8.636;2023-07-13T05:41:36;2.40;;;2.10;;
10059;SDS011;5069;49.306;8.636;2023-07-13T05:44:37;5.53;;;2.37;;
10059;SDS011;5069;49.306;8.636;2023-07-13T05:47:39;5.03;;;2.30;;
10059;SDS011;5069;49.306;8.636;2023-07-13T05:50:40;2.57;;;2.00;;
10059;SDS011;5069;49.306;8.636;2023-07-13T05:53:42;6.67;;;2.23;;
10059;SDS011;5069;49.306;8.636;2023-07-13T05:56:43;4.90;;;2.43;;
10059;SDS011;5069;49.306;8.636;2023-07-13T05:59:45;5.53;;;2.20;;
10059;SDS011;5069;49.306;8.636;2023-07-13T06:02:46;4.27;;;2.13;;
10059;SDS011;5069;49.306;8.636;2023-07-13T06:05:48;4.23;;;2.40;;
10059;SDS011;5069;49.306;8.636;2023-07-13T06:08:49;5.47;;;2.00;;
10059;SDS011;5069;49.306;8.636;2023-07-13T06:11:51;7.27;;;2.40;;
10059;SDS011;5069;49.306;8.636;2023-07-13T06:14:52;6.73;;;2.00;;
10059;SDS011;5069;49.306;8.636;2023-07-13T06:17:54;4.67;;;2.10;;
10059;SDS011;5069;49.306;8.636;2023-07-13T06:20:55;4.27;;;2.20;;
10059;SDS011;5069;49.306;8.636;2023-07-13T06:23:57;2.43;;;1.90;;
10059;SDS011;5069;49.306;8.636;2023-07-13T06:26:59;2.40;;;1.90;;
10059;SDS011;5069;49.306;8.636;2023-07-13T06:30:00;4.63;;;2.10;;
10059;SDS011;5069;49.306;8.636;2023-07-13T06:33:02;4.03;;;2.20;;
10059;SDS011;5069;49.306;8.636;2023-07-13T06:36:04;4.53;;;2.37;;
10059;SDS011;5069;49.306;8.636;2023-07-13T06:39:06;6.50;;;2.30;;
10059;SDS011;5069;49.306;8.636;2023-07-13T06:42:08;7.57;;;2.10;;
10059;SDS011;5069;49.306;8.636;2023-07-13T06:45:12;4.80;;;2.23;;
10059;SDS011;5069;49.306;8.636;2023-07-13T06:48:14;9.63;;;2.33;;
10059;SDS011;5069;49.306;8.636;2023-07-13T06:51:19;7.97;;;2.70;;
10059;SDS011;5069;49.306;8.636;2023-07-13T06:54:21;3.47;;;2.00;;
10059;SDS011;5069;49.306;8.636;2023-07-13T06:57:22;5.37;;;2.23;;
10059;SDS011;5069;49.306;8.636;2023-07-13T07:00:24;5.83;;;2.30;;
10059;SDS011;5069;49.306;8.636;2023-07-13T07:03:25;4.43;;;2.00;;
10059;SDS011;5069;49.306;8.636;2023-07-13T07:06:27;4.57;;;1.93;;
10059;SDS011;5069;49.306;8.636;2023-07-13T07:09:29;4.60;;;1.90;;
10059;SDS011;5069;49.306;8.636;2023-07-13T07:12:32;5.37;;;2.30;;
10059;SDS011;5069;49.306;8.636;2023-07-13T07:15:34;5.97;;;2.00;;
10059;SDS011;5069;49.306;8.636;2023-07-13T07:18:36;2.50;;;1.90;;
10059;SDS011;5069;49.306;8.636;2023-07-13T07:21:37;4.97;;;1.90;;
10059;SDS011;5069;49.306;8.636;2023-07-13T07:24:39;3.73;;;1.73;;
10059;SDS011;5069;49.306;8.636;2023-07-13T07:27:40;4.80;;;1.80;;
10059;SDS011;5069;49.306;8.636;2023-07-13T07:30:45;4.93;;;1.80;;
10059;SDS011;5069;49.306;8.636;2023-07-13T07:33:50;6.87;;;1.90;;
10059;SDS011;5069;49.306;8.636;2023-07-13T07:36:53;4.77;;;2.20;;
10059;SDS011;5069;49.306;8.636;2023-07-13T07:39:58;6.50;;;1.80;;
10059;SDS011;5069;49.306;8.636;2023-07-13T07:43:03;4.93;;;3.50;;
10059;SDS011;5069;49.306;8.636;2023-07-13T07:46:04;3.30;;;1.43;;
10059;SDS011;5069;49.306;8.636;2023-07-13T07:49:06;4.17;;;1.67;;
10059;SDS011;5069;49.306;8.636;2023-07-13T07:52:08;3.30;;;1.90;;
10059;SDS011;5069;49.306;8.636;2023-07-13T07:55:09;6.33;;;2.00;;
10059;SDS011;5069;49.306;8.636;2023-07-13T07:58:15;4.00;;;1.63;;
10059;SDS011;5069;49.306;8.636;2023-07-13T08:01:37;4.40;;;1.50;;
10059;SDS011;5069;49.306;8.636;2023-07-13T08:04:41;2.80;;;1.83;;
10059;SDS011;5069;49.306;8.636;2023-07-13T08:08:03;3.73;;;1.70;;
10059;SDS011;5069;49.306;8.636;2023-07-13T08:11:05;3.87;;;1.73;;
10059;SDS011;5069;49.306;8.636;2023-07-13T08:14:11;5.67;;;1.80;;
10059;SDS011;5069;49.306;8.636;2023-07-13T08:17:12;3.17;;;1.50;;
10059;SDS011;5069;49.306;8.636;2023-07-13T08:20:14;3.27;;;1.60;;
10059;SDS011;5069;49.306;8.636;2023-07-13T08:23:17;2.63;;;1.53;;
10059;SDS011;5069;49.306;8.636;2023-07-13T08:26:18;3.57;;;1.80;;
10059;SDS011;5069;49.306;8.636;2023-07-13T08:29:20;3.10;;;1.83;;
10059;SDS011;5069;49.306;8.636;2023-07-13T08:32:22;5.23;;;1.40;;
10059;SDS011;5069;49.306;8.636;2023-07-13T08:35:24;3.07;;;1.60;;
10059;SDS011;5069;49.306;8.636;2023-07-13T08:38:27;5.33;;;1.50;;
10059;SDS011;5069;49.306;8.636;2023-07-13T08:41:28;3.53;;;1.50;;
10059;SDS011;5069;49.306;8.636;2023-07-13T08:48:18;2.13;;;1.30;;
10059;SDS011;5069;49.306;8.636;2023-07-13T08:54:36;4.70;;;1.67;;
10059;SDS011;5069;49.306;8.636;2023-07-13T08:57:41;4.07;;;1.33;;
10059;SDS011;5069;49.306;8.636;2023-07-13T09:04:19;4.27;;;1.50;;
10059;SDS011;5069;49.306;8.636;2023-07-13T09:07:29;4.43;;;1.57;;
10059;SDS011;5069;49.306;8.636;2023-07-13T09:10:37;3.27;;;1.50;;
10059;SDS011;5069;49.306;8.636;2023-07-13T09:17:11;4.53;;;1.70;;
10059;SDS011;5069;49.306;8.636;2023-07-13T09:23:38;3.00;;;1.50;;
10059;SDS011;5069;49.306;8.636;2023-07-13T09:26:40;4.70;;;1.70;;
10059;SDS011;5069;49.306;8.636;2023-07-13T09:29:41;6.57;;;1.53;;
10059;SDS011;5069;49.306;8.636;2023-07-13T09:32:52;3.50;;;1.70;;
10059;SDS011;5069;49.306;8.636;2023-07-13T09:35:55;5.47;;;1.50;;
10059;SDS011;5069;49.306;8.636;2023-07-13T09:42:17;4.47;;;1.23;;
10059;SDS011;5069;49.306;8.636;2023-07-13T09:45:27;4.50;;;1.40;;
10059;SDS011;5069;49.306;8.636;2023-07-13T09:48:33;3.27;;;1.30;;
10059;SDS011;5069;49.306;8.636;2023-07-13T09:51:37;6.25;;;1.60;;
10059;SDS011;5069;49.306;8.636;2023-07-13T09:54:45;2.20;;;1.50;;
10059;SDS011;5069;49.306;8.636;2023-07-13T09:57:50;4.75;;;1.35;;
10059;SDS011;5069;49.306;8.636;2023-07-13T10:00:54;2.47;;;1.35;;
10059;SDS011;5069;49.306;8.636;2023-07-13T10:03:58;2.55;;;1.33;;
10059;SDS011;5069;49.306;8.636;2023-07-13T10:07:09;3.30;;;1.60;;
10059;SDS011;5069;49.306;8.636;2023-07-13T10:10:30;4.13;;;1.70;;
10059;SDS011;5069;49.306;8.636;2023-07-13T10:13:33;4.18;;;1.70;;
10059;SDS011;5069;49.306;8.636;2023-07-13T10:16:42;2.50;;;1.50;;
10059;SDS011;5069;49.306;8.636;2023-07-13T10:19:45;5.97;;;1.40;;
10059;SDS011;5069;49.306;8.636;2023-07-13T10:22:50;4.05;;;1.67;;
10059;SDS011;5069;49.306;8.636;2023-07-13T10:25:56;2.13;;;1.38;;
10059;SDS011;5069;49.306;8.636;2023-07-13T10:29:02;4.13;;;1.35;;
10059;SDS011;5069;49.306;8.636;2023-07-13T10:32:11;1.30;;;1.20;;
10059;SDS011;5069;49.306;8.636;2023-07-13T10:35:15;2.50;;;1.20;;
10059;SDS011;5069;49.306;8.636;2023-07-13T10:38:22;3.65;;;1.70;;
10059;SDS011;5069;49.306;8.636;2023-07-13T10:41:25;8.32;;;1.70;;
10059;SDS011;5069;49.306;8.636;2023-07-13T10:44:29;5.83;;;1.70;;
10059;SDS011;5069;49.306;8.636;2023-07-13T10:47:32;4.13;;;1.40;;
10059;SDS011;5069;49.306;8.636;2023-07-13T10:50:34;5.72;;;1.48;;
10059;SDS011;5069;49.306;8.636;2023-07-13T10:53:38;5.72;;;1.40;;
10059;SDS011;5069;49.306;8.636;2023-07-13T10:56:43;4.75;;;1.45;;
10059;SDS011;5069;49.306;8.636;2023-07-13T11:03:10;4.43;;;1.30;;
10059;SDS011;5069;49.306;8.636;2023-07-13T11:06:37;3.45;;;1.40;;
10059;SDS011;5069;49.306;8.636;2023-07-13T11:09:49;4.43;;;1.52;;
10059;SDS011;5069;49.306;8.636;2023-07-13T11:12:53;6.00;;;1.55;;
10059;SDS011;5069;49.306;8.636;2023-07-13T11:15:55;2.15;;;1.33;;
10059;SDS011;5069;49.306;8.636;2023-07-13T11:25:20;4.03;;;1.70;;
10059;SDS011;5069;49.306;8.636;2023-07-13T11:28:24;5.50;;;1.60;;
10059;SDS011;5069;49.306;8.636;2023-07-13T11:31:27;4.78;;;1.33;;
10059;SDS011;5069;49.306;8.636;2023-07-13T11:34:35;2.38;;;1.30;;
10059;SDS011;5069;49.306;8.636;2023-07-13T11:37:39;2.88;;;1.08;;
10059;SDS011;5069;49.306;8.636;2023-07-13T11:40:42;2.47;;;1.20;;
10059;SDS011;5069;49.306;8.636;2023-07-13T11:43:49;2.90;;;1.30;;
10059;SDS011;5069;49.306;8.636;2023-07-13T11:46:53;3.15;;;1.50;;
10059;SDS011;5069;49.306;8.636;2023-07-13T11:49:56;6.63;;;1.60;;
10059;SDS011;5069;49.306;8.636;2023-07-13T11:52:58;6.07;;;1.50;;
10059;SDS011;5069;49.306;8.636;2023-07-13T11:56:00;3.88;;;1.40;;
10059;SDS011;5069;49.306;8.636;2023-07-13T11:59:06;6.70;;;1.40;;
10059;SDS011;5069;49.306;8.636;2023-07-13T12:02:16;2.20;;;1.10;;
10059;SDS011;5069;49.306;8.636;2023-07-13T12:05:26;3.10;;;1.30;;
10059;SDS011;5069;49.306;8.636;2023-07-13T12:08:28;3.33;;;1.40;;
10059;SDS011;5069;49.306;8.636;2023-07-13T12:11:30;4.05;;;1.48;;
10059;SDS011;5069;49.306;8.636;2023-07-13T12:14:41;2.25;;;1.45;;
10059;SDS011;5069;49.306;8.636;2023-07-13T12:17:43;2.35;;;1.30;;
10059;SDS011;5069;49.306;8.636;2023-07-13T12:20:45;2.80;;;1.30;;
10059;SDS011;5069;49.306;8.636;2023-07-13T12:23:49;2.20;;;1.10;;
10059;SDS011;5069;49.306;8.636;2023-07-13T12:26:55;3.20;;;1.40;;
10059;SDS011;5069;49.306;8.636;2023-07-13T12:30:05;5.30;;;1.60;;
10059;SDS011;5069;49.306;8.636;2023-07-13T12:33:39;3.03;;;1.40;;
10059;SDS011;5069;49.306;8.636;2023-07-13T12:36:52;2.75;;;1.40;;
10059;SDS011;5069;49.306;8.636;2023-07-13T12:39:55;3.90;;;1.40;;
10059;SDS011;5069;49.306;8.636;2023-07-13T12:42:57;2.50;;;1.20;;
10059;SDS011;5069;49.306;8.636;2023-07-13T12:46:19;3.97;;;1.20;;
10059;SDS011;5069;49.306;8.636;2023-07-13T12:49:27;3.80;;;1.30;;
10059;SDS011;5069;49.306;8.636;2023-07-13T12:52:31;2.92;;;1.50;;
10059;SDS011;5069;49.306;8.636;2023-07-13T12:55:46;3.78;;;1.30;;
10059;SDS011;5069;49.306;8.636;2023-07-13T12:58:51;5.05;;;1.63;;
10059;SDS011;5069;49.306;8.636;2023-07-13T13:02:00;3.15;;;1.50;;
10059;SDS011;5069;49.306;8.636;2023-07-13T13:05:02;2.05;;;1.15;;
10059;SDS011;5069;49.306;8.636;2023-07-13T13:08:08;2.75;;;1.30;;
10059;SDS011;5069;49.306;8.636;2023-07-13T13:11:12;2.47;;;1.50;;
10059;SDS011;5069;49.306;8.636;2023-07-13T13:14:17;2.33;;;1.20;;
10059;SDS011;5069;49.306;8.636;2023-07-13T13:17:19;2.72;;;1.40;;
10059;SDS011;5069;49.306;8.636;2023-07-13T13:20:25;1.75;;;1.23;;
10059;SDS011;5069;49.306;8.636;2023-07-13T13:23:29;2.60;;;1.30;;
10059;SDS011;5069;49.306;8.636;2023-07-13T13:26:31;4.78;;;1.60;;
10059;SDS011;5069;49.306;8.636;2023-07-13T13:29:34;6.80;;;1.90;;
10059;SDS011;5069;49.306;8.636;2023-07-13T13:32:40;3.60;;;1.60;;
10059;SDS011;5069;49.306;8.636;2023-07-13T13:35:42;3.40;;;1.48;;
10059;SDS011;5069;49.306;8.636;2023-07-13T13:38:44;3.03;;;1.33;;
10059;SDS011;5069;49.306;8.636;2023-07-13T13:41:46;1.83;;;1.10;;
10059;SDS011;5069;49.306;8.636;2023-07-13T13:44:48;2.55;;;1.25;;
10059;SDS011;5069;49.306;8.636;2023-07-13T13:47:50;9.23;;;2.22;;
10059;SDS011;5069;49.306;8.636;2023-07-13T13:50:51;4.25;;;1.30;;
10059;SDS011;5069;49.306;8.636;2023-07-13T13:53:53;3.05;;;1.40;;
10059;SDS011;5069;49.306;8.636;2023-07-13T13:56:54;3.10;;;1.30;;
10059;SDS011;5069;49.306;8.636;2023-07-13T13:59:56;5.15;;;1.25;;
10059;SDS011;5069;49.306;8.636;2023-07-13T14:02:58;2.42;;;1.13;;
10059;SDS011;5069;49.306;8.636;2023-07-13T14:06:01;2.95;;;1.23;;
10059;SDS011;5069;49.306;8.636;2023-07-13T14:09:02;8.18;;;1.40;;
10059;SDS011;5069;49.306;8.636;2023-07-13T14:12:04;5.45;;;1.42;;
10059;SDS011;5069;49.306;8.636;2023-07-13T14:15:08;2.67;;;1.27;;
10059;SDS011;5069;49.306;8.636;2023-07-13T14:18:25;2.17;;;1.30;;
10059;SDS011;5069;49.306;8.636;2023-07-13T14:21:28;5.28;;;1.50;;
10059;SDS011;5069;49.306;8.636;2023-07-13T14:24:30;2.92;;;1.40;;
10059;SDS011;5069;49.306;8.636;2023-07-13T14:27:32;2.53;;;1.50;;
10059;SDS011;5069;49.306;8.636;2023-07-13T14:30:33;1.48;;;1.23;;
10059;SDS011;5069;49.306;8.636;2023-07-13T14:33:35;3.67;;;1.30;;
10059;SDS011;5069;49.306;8.636;2023-07-13T14:36:38;5.38;;;1.63;;
10059;SDS011;5069;49.306;8.636;2023-07-13T14:39:43;5.18;;;1.45;;
10059;SDS011;5069;49.306;8.636;2023-07-13T14:42:46;2.83;;;1.30;;
10059;SDS011;5069;49.306;8.636;2023-07-13T14:45:49;4.35;;;1.40;;
10059;SDS011;5069;49.306;8.636;2023-07-13T14:48:53;4.32;;;1.38;;
10059;SDS011;5069;49.306;8.636;2023-07-13T14:52:02;2.22;;;1.40;;
10059;SDS011;5069;49.306;8.636;2023-07-13T14:55:15;2.97;;;1.30;;
10059;SDS011;5069;49.306;8.636;2023-07-13T14:58:19;6.13;;;1.50;;
10059;SDS011;5069;49.306;8.636;2023-07-13T15:01:20;4.10;;;1.90;;
10059;SDS011;5069;49.306;8.636;2023-07-13T15:04:23;7.28;;;1.58;;
10059;SDS011;5069;49.306;8.636;2023-07-13T15:07:25;3.63;;;1.30;;
10059;SDS011;5069;49.306;8.636;2023-07-13T15:10:28;3.63;;;1.48;;
10059;SDS011;5069;49.306;8.636;2023-07-13T15:13:32;3.67;;;1.52;;
10059;SDS011;5069;49.306;8.636;2023-07-13T15:16:35;4.20;;;1.60;;
10059;SDS011;5069;49.306;8.636;2023-07-13T15:19:36;3.55;;;1.40;;
10059;SDS011;5069;49.306;8.636;2023-07-13T15:22:38;3.63;;;1.50;;
10059;SDS011;5069;49.306;8.636;2023-07-13T15:25:40;3.15;;;1.58;;
10059;SDS011;5069;49.306;8.636;2023-07-13T15:28:43;5.93;;;1.45;;
10059;SDS011;5069;49.306;8.636;2023-07-13T15:31:45;4.20;;;1.77;;
10059;SDS011;5069;49.306;8.636;2023-07-13T15:34:47;3.30;;;1.40;;
10059;SDS011;5069;49.306;8.636;2023-07-13T15:37:48;7.82;;;1.70;;
10059;SDS011;5069;49.306;8.636;2023-07-13T15:40:51;4.90;;;1.48;;
10059;SDS011;5069;49.306;8.636;2023-07-13T15:43:55;6.07;;;1.77;;
10059;SDS011;5069;49.306;8.636;2023-07-13T15:46:59;2.80;;;1.30;;
10059;SDS011;5069;49.306;8.636;2023-07-13T15:50:02;1.77;;;1.02;;
10059;SDS011;5069;49.306;8.636;2023-07-13T15:53:04;2.65;;;1.50;;
10059;SDS011;5069;49.306;8.636;2023-07-13T15:56:22;2.65;;;1.40;;
10059;SDS011;5069;49.306;8.636;2023-07-13T15:59:25;2.60;;;1.60;;
10059;SDS011;5069;49.306;8.636;2023-07-13T16:02:26;3.83;;;1.50;;
10059;SDS011;5069;49.306;8.636;2023-07-13T16:05:28;2.45;;;1.50;;
10059;SDS011;5069;49.306;8.636;2023-07-13T16:08:31;2.70;;;1.23;;
10059;SDS011;5069;49.306;8.636;2023-07-13T16:11:35;3.30;;;1.60;;
10059;SDS011;5069;49.306;8.636;2023-07-13T16:14:39;7.50;;;1.50;;
10059;SDS011;5069;49.306;8.636;2023-07-13T16:17:44;3.22;;;1.30;;
10059;SDS011;5069;49.306;8.636;2023-07-13T16:20:47;2.30;;;1.23;;
10059;SDS011;5069;49.306;8.636;2023-07-13T16:23:51;3.42;;;1.33;;
10059;SDS011;5069;49.306;8.636;2023-07-13T16:27:07;3.13;;;1.52;;
10059;SDS011;5069;49.306;8.636;2023-07-13T16:30:14;2.75;;;1.48;;
10059;SDS011;5069;49.306;8.636;2023-07-13T16:33:19;3.88;;;1.58;;
10059;SDS011;5069;49.306;8.636;2023-07-13T16:36:23;2.53;;;1.40;;
10059;SDS011;5069;49.306;8.636;2023-07-13T16:39:26;3.95;;;1.40;;
10059;SDS011;5069;49.306;8.636;2023-07-13T16:42:28;1.60;;;1.30;;
10059;SDS011;5069;49.306;8.636;2023-07-13T16:45:31;4.28;;;1.70;;
10059;SDS011;5069;49.306;8.636;2023-07-13T16:48:36;1.80;;;1.42;;
10059;SDS011;5069;49.306;8.636;2023-07-13T16:51:38;2.78;;;1.58;;
10059;SDS011;5069;49.306;8.636;2023-07-13T16:54:40;2.10;;;1.23;;
10059;SDS011;5069;49.306;8.636;2023-07-13T16:57:43;3.80;;;1.63;;
10059;SDS011;5069;49.306;8.636;2023-07-13T17:00:46;2.22;;;1.35;;
10059;SDS011;5069;49.306;8.636;2023-07-13T17:03:48;5.45;;;1.60;;
10059;SDS011;5069;49.306;8.636;2023-07-13T17:06:50;2.58;;;1.73;;
10059;SDS011;5069;49.306;8.636;2023-07-13T17:09:54;5.55;;;1.60;;
10059;SDS011;5069;49.306;8.636;2023-07-13T17:12:56;3.03;;;1.77;;
10059;SDS011;5069;49.306;8.636;2023-07-13T17:15:58;3.00;;;1.50;;
10059;SDS011;5069;49.306;8.636;2023-07-13T17:19:00;4.15;;;1.48;;
10059;SDS011;5069;49.306;8.636;2023-07-13T17:22:01;4.88;;;1.48;;
10059;SDS011;5069;49.306;8.636;2023-07-13T17:25:11;7.55;;;1.50;;
10059;SDS011;5069;49.306;8.636;2023-07-13T17:28:15;3.95;;;1.88;;
10059;SDS011;5069;49.306;8.636;2023-07-13T17:31:17;3.92;;;1.80;;
10059;SDS011;5069;49.306;8.636;2023-07-13T17:34:22;5.28;;;1.58;;
10059;SDS011;5069;49.306;8.636;2023-07-13T17:37:24;4.50;;;1.50;;
10059;SDS011;5069;49.306;8.636;2023-07-13T17:40:26;2.92;;;1.42;;
10059;SDS011;5069;49.306;8.636;2023-07-13T17:43:28;2.17;;;1.25;;
10059;SDS011;5069;49.306;8.636;2023-07-13T17:46:32;2.85;;;1.42;;
10059;SDS011;5069;49.306;8.636;2023-07-13T17:49:36;5.30;;;1.50;;
10059;SDS011;5069;49.306;8.636;2023-07-13T17:52:38;3.00;;;1.40;;
10059;SDS011;5069;49.306;8.636;2023-07-13T17:55:41;1.88;;;1.20;;
10059;SDS011;5069;49.306;8.636;2023-07-13T17:58:43;2.60;;;1.25;;
10059;SDS011;5069;49.306;8.636;2023-07-13T18:01:45;5.47;;;1.45;;
10059;SDS011;5069;49.306;8.636;2023-07-13T18:04:48;2.42;;;1.40;;
10059;SDS011;5069;49.306;8.636;2023-07-13T18:07:50;2.13;;;1.20;;
10059;SDS011;5069;49.306;8.636;2023-07-13T18:10:54;2.58;;;1.30;;
10059;SDS011;5069;49.306;8.636;2023-07-13T18:13:57;3.25;;;1.58;;
10059;SDS011;5069;49.306;8.636;2023-07-13T18:16:59;5.38;;;1.42;;
10059;SDS011;5069;49.306;8.636;2023-07-13T18:20:05;3.78;;;1.38;;
10059;SDS011;5069;49.306;8.636;2023-07-13T18:23:14;3.10;;;1.38;;
10059;SDS011;5069;49.306;8.636;2023-07-13T18:26:23;2.35;;;1.30;;
10059;SDS011;5069;49.306;8.636;2023-07-13T18:29:26;4.90;;;1.60;;
10059;SDS011;5069;49.306;8.636;2023-07-13T18:32:29;4.32;;;1.48;;
10059;SDS011;5069;49.306;8.636;2023-07-13T18:35:33;2.67;;;1.30;;
10059;SDS011;5069;49.306;8.636;2023-07-13T18:38:35;4.05;;;1.63;;
10059;SDS011;5069;49.306;8.636;2023-07-13T18:41:38;1.70;;;1.40;;
10059;SDS011;5069;49.306;8.636;2023-07-13T18:44:40;5.03;;;1.30;;
10059;SDS011;5069;49.306;8.636;2023-07-13T18:47:41;5.18;;;1.30;;
10059;SDS011;5069;49.306;8.636;2023-07-13T18:50:45;2.05;;;1.33;;
10059;SDS011;5069;49.306;8.636;2023-07-13T18:53:46;4.38;;;1.38;;
10059;SDS011;5069;49.306;8.636;2023-07-13T18:56:48;4.70;;;1.48;;
10059;SDS011;5069;49.306;8.636;2023-07-13T18:59:50;2.15;;;1.35;;
10059;SDS011;5069;49.306;8.636;2023-07-13T19:02:51;2.67;;;1.40;;
10059;SDS011;5069;49.306;8.636;2023-07-13T19:05:54;1.73;;;1.38;;
10059;SDS011;5069;49.306;8.636;2023-07-13T19:09:04;2.65;;;1.30;;
10059;SDS011;5069;49.306;8.636;2023-07-13T19:12:20;2.45;;;1.25;;